sensor_id;sensor_type;location;lat;lon;timestamp;pressure;altitude;pressure_sealevel;temperature;humidity
13767;BME280;47980;48.794;9.176;2023-04-27T00:00:19;98333.63;;;10.39;67.49
13767;BME280;47980;48.794;9.176;2023-04-27T00:02:51;98335.66;;;10.33;68.62
13767;BME280;47980;48.794;9.176;2023-04-27T00:05:22;98334.41;;;10.39;68.90
13767;BME280;47980;48.794;9.176;2023-04-27T00:07:54;98331.13;;;10.33;67.71
13767;BME280;47980;48.794;9.176;2023-04-27T00:10:27;98326.63;;;10.25;69.60
13767;BME280;47980;48.794;9.176;2023-04-27T00:13:00;98325.81;;;10.16;68.47
13767;BME280;47980;48.794;9.176;2023-04-27T00:15:31;98321.31;;;10.17;69.42
13767;BME280;47980;48.794;9.176;2023-04-27T00:18:03;98322.88;;;10.18;69.11
13767;BME280;47980;48.794;9.176;2023-04-27T00:20:35;98321.00;;;10.27;68.56
13767;BME280;47980;48.794;9.176;2023-04-27T00:23:07;98316.28;;;10.24;68.17
13767;BME280;47980;48.794;9.176;2023-04-27T00:25:40;98313.50;;;10.20;65.18
13767;BME280;47980;48.794;9.176;2023-04-27T00:28:12;98316.22;;;10.03;65.46
13767;BME280;47980;48.794;9.176;2023-04-27T00:30:43;98312.41;;;10.30;65.04
13767;BME280;47980;48.794;9.176;2023-04-27T00:33:16;98314.25;;;10.38;62.89
13767;BME280;47980;48.794;9.176;2023-04-27T00:35:47;98318.16;;;10.23;67.48
13767;BME280;47980;48.794;9.176;2023-04-27T00:38:19;98316.94;;;10.12;66.74
13767;BME280;47980;48.794;9.176;2023-04-27T00:40:59;98314.78;;;10.05;67.82
13767;BME280;47980;48.794;9.176;2023-04-27T00:43:40;98307.41;;;10.20;67.77
13767;BME280;47980;48.794;9.176;2023-04-27T00:46:13;98299.78;;;10.18;69.38
13767;BME280;47980;48.794;9.176;2023-04-27T00:48:45;98296.88;;;10.02;69.55
13767;BME280;47980;48.794;9.176;2023-04-27T00:51:17;98297.31;;;10.13;69.21
13767;BME280;47980;48.794;9.176;2023-04-27T00:53:50;98293.72;;;10.18;69.00
13767;BME280;47980;48.794;9.176;2023-04-27T00:56:24;98297.94;;;10.10;67.45
13767;BME280;47980;48.794;9.176;2023-04-27T00:58:57;98302.47;;;10.09;68.32
13767;BME280;47980;48.794;9.176;2023-04-27T01:01:29;98293.56;;;10.14;67.95
13767;BME280;47980;48.794;9.176;2023-04-27T01:04:01;98299.66;;;10.15;70.14
13767;BME280;47980;48.794;9.176;2023-04-27T01:06:32;98305.28;;;10.13;68.79
13767;BME280;47980;48.794;9.176;2023-04-27T01:09:04;98301.66;;;10.18;70.33
13767;BME280;47980;48.794;9.176;2023-04-27T01:11:38;98298.59;;;9.98;68.58
13767;BME280;47980;48.794;9.176;2023-04-27T01:14:10;98299.78;;;10.18;69.15
13767;BME280;47980;48.794;9.176;2023-04-27T01:16:42;98303.69;;;10.12;71.41
13767;BME280;47980;48.794;9.176;2023-04-27T01:19:15;98298.88;;;10.05;71.66
13767;BME280;47980;48.794;9.176;2023-04-27T01:21:47;98306.53;;;10.07;71.15
13767;BME280;47980;48.794;9.176;2023-04-27T01:24:20;98303.09;;;10.06;69.76
13767;BME280;47980;48.794;9.176;2023-04-27T01:26:52;98306.53;;;9.98;73.28
13767;BME280;47980;48.794;9.176;2023-04-27T01:29:24;98308.72;;;10.05;71.83
13767;BME280;47980;48.794;9.176;2023-04-27T01:31:56;98303.09;;;9.98;73.92
13767;BME280;47980;48.794;9.176;2023-04-27T01:34:27;98302.34;;;9.80;72.50
13767;BME280;47980;48.794;9.176;2023-04-27T01:36:59;98295.66;;;9.82;72.60
13767;BME280;47980;48.794;9.176;2023-04-27T01:39:32;98299.88;;;9.92;73.48
13767;BME280;47980;48.794;9.176;2023-04-27T01:42:04;98303.59;;;9.91;71.82
13767;BME280;47980;48.794;9.176;2023-04-27T01:44:36;98297.97;;;9.84;73.31
13767;BME280;47980;48.794;9.176;2023-04-27T01:47:08;98299.22;;;9.86;74.59
13767;BME280;47980;48.794;9.176;2023-04-27T01:49:39;98300.03;;;9.78;75.12
13767;BME280;47980;48.794;9.176;2023-04-27T01:52:11;98303.00;;;9.68;75.39
13767;BME280;47980;48.794;9.176;2023-04-27T01:54:44;98299.25;;;9.69;75.43
13767;BME280;47980;48.794;9.176;2023-04-27T01:57:16;98308.31;;;9.77;75.58
13767;BME280;47980;48.794;9.176;2023-04-27T01:59:48;98306.41;;;9.69;74.78
13767;BME280;47980;48.794;9.176;2023-04-27T02:02:20;98310.47;;;9.75;75.29
13767;BME280;47980;48.794;9.176;2023-04-27T02:04:51;98306.59;;;9.81;75.42
13767;BME280;47980;48.794;9.176;2023-04-27T02:07:24;98308.63;;;9.67;75.99
13767;BME280;47980;48.794;9.176;2023-04-27T02:09:58;98317.03;;;9.77;75.90
13767;BME280;47980;48.794;9.176;2023-04-27T02:12:29;98310.81;;;9.73;76.49
13767;BME280;47980;48.794;9.176;2023-04-27T02:15:01;98320.75;;;9.76;74.60
13767;BME280;47980;48.794;9.176;2023-04-27T02:17:33;98318.91;;;9.77;73.29
13767;BME280;47980;48.794;9.176;2023-04-27T02:20:06;98318.91;;;9.77;75.52
13767;BME280;47980;48.794;9.176;2023-04-27T02:22:40;98318.88;;;9.85;75.35
13767;BME280;47980;48.794;9.176;2023-04-27T02:25:14;98326.06;;;9.85;76.21
13767;BME280;47980;48.794;9.176;2023-04-27T02:27:45;98324.34;;;9.80;75.79
13767;BME280;47980;48.794;9.176;2023-04-27T02:30:17;98322.47;;;9.72;75.32
13767;BME280;47980;48.794;9.176;2023-04-27T02:32:50;98326.03;;;9.76;75.69
13767;BME280;47980;48.794;9.176;2023-04-27T02:35:24;98330.09;;;9.82;75.25
13767;BME280;47980;48.794;9.176;2023-04-27T02:37:56;98330.88;;;9.83;76.49
13767;BME280;47980;48.794;9.176;2023-04-27T02:40:29;98325.91;;;9.55;75.02
13767;BME280;47980;48.794;9.176;2023-04-27T02:43:01;98330.44;;;9.63;75.41
13767;BME280;47980;48.794;9.176;2023-04-27T02:45:35;98337.91;;;9.70;75.58
13767;BME280;47980;48.794;9.176;2023-04-27T02:48:07;98336.03;;;9.79;75.70
13767;BME280;47980;48.794;9.176;2023-04-27T02:50:39;98335.88;;;9.76;76.61
13767;BME280;47980;48.794;9.176;2023-04-27T02:53:11;98332.16;;;9.77;75.05
13767;BME280;47980;48.794;9.176;2023-04-27T02:55:48;98338.06;;;9.74;74.78
13767;BME280;47980;48.794;9.176;2023-04-27T02:58:19;98338.69;;;9.88;74.23
13767;BME280;47980;48.794;9.176;2023-04-27T03:00:55;98349.91;;;9.85;75.03
13767;BME280;47980;48.794;9.176;2023-04-27T03:03:27;98347.41;;;9.80;75.74
13767;BME280;47980;48.794;9.176;2023-04-27T03:05:58;98342.88;;;9.72;75.36
13767;BME280;47980;48.794;9.176;2023-04-27T03:08:30;98339.94;;;9.64;75.31
13767;BME280;47980;48.794;9.176;2023-04-27T03:11:03;98343.06;;;9.67;75.71
13767;BME280;47980;48.794;9.176;2023-04-27T03:13:35;98343.81;;;9.67;76.17
13767;BME280;47980;48.794;9.176;2023-04-27T03:16:11;98343.19;;;9.61;76.14
13767;BME280;47980;48.794;9.176;2023-04-27T03:18:42;98341.66;;;9.52;75.90
13767;BME280;47980;48.794;9.176;2023-04-27T03:21:14;98339.75;;;9.61;74.62
13767;BME280;47980;48.794;9.176;2023-04-27T03:23:46;98328.88;;;9.45;74.78
13767;BME280;47980;48.794;9.176;2023-04-27T03:26:20;98337.75;;;9.67;74.54
13767;BME280;47980;48.794;9.176;2023-04-27T03:28:51;98341.47;;;9.92;71.99
13767;BME280;47980;48.794;9.176;2023-04-27T03:31:24;98350.50;;;9.91;73.17
13767;BME280;47980;48.794;9.176;2023-04-27T03:33:56;98345.41;;;9.77;73.37
13767;BME280;47980;48.794;9.176;2023-04-27T03:36:28;98341.19;;;9.84;72.02
13767;BME280;47980;48.794;9.176;2023-04-27T03:39:03;98342.25;;;9.75;73.53
13767;BME280;47980;48.794;9.176;2023-04-27T03:41:36;98341.94;;;9.85;74.66
13767;BME280;47980;48.794;9.176;2023-04-27T03:44:08;98327.91;;;9.76;76.47
13767;BME280;47980;48.794;9.176;2023-04-27T03:46:39;98344.94;;;9.66;74.96
13767;BME280;47980;48.794;9.176;2023-04-27T03:49:11;98340.84;;;9.69;75.26
13767;BME280;47980;48.794;9.176;2023-04-27T03:51:43;98344.59;;;9.76;74.51
13767;BME280;47980;48.794;9.176;2023-04-27T03:54:14;98344.91;;;9.75;74.67
13767;BME280;47980;48.794;9.176;2023-04-27T03:56:47;98349.28;;;9.71;74.15
13767;BME280;47980;48.794;9.176;2023-04-27T03:59:19;98349.91;;;9.59;76.25
13767;BME280;47980;48.794;9.176;2023-04-27T04:01:51;98346.78;;;9.57;76.47
13767;BME280;47980;48.794;9.176;2023-04-27T04:04:23;98346.47;;;9.58;76.59
13767;BME280;47980;48.794;9.176;2023-04-27T04:06:54;98338.84;;;9.57;77.52
13767;BME280;47980;48.794;9.176;2023-04-27T04:09:26;98345.38;;;9.51;75.82
13767;BME280;47980;48.794;9.176;2023-04-27T04:11:59;98343.38;;;9.48;75.65
13767;BME280;47980;48.794;9.176;2023-04-27T04:14:31;98343.97;;;9.53;74.54
13767;BME280;47980;48.794;9.176;2023-04-27T04:17:03;98348.34;;;9.58;76.90
13767;BME280;47980;48.794;9.176;2023-04-27T04:19:35;98344.44;;;9.64;76.30
13767;BME280;47980;48.794;9.176;2023-04-27T04:22:06;98346.16;;;9.43;76.41
13767;BME280;47980;48.794;9.176;2023-04-27T04:24:38;98339.75;;;9.61;77.02
13767;BME280;47980;48.794;9.176;2023-04-27T04:27:12;98357.84;;;9.59;76.58
13767;BME280;47980;48.794;9.176;2023-04-27T04:29:45;98354.72;;;9.65;75.82
13767;BME280;47980;48.794;9.176;2023-04-27T04:32:17;98354.41;;;9.76;76.10
13767;BME280;47980;48.794;9.176;2023-04-27T04:34:49;98354.13;;;9.77;76.60
13767;BME280;47980;48.794;9.176;2023-04-27T04:37:21;98358.31;;;9.87;76.29
13767;BME280;47980;48.794;9.176;2023-04-27T04:39:53;98365.03;;;9.84;76.22
13767;BME280;47980;48.794;9.176;2023-04-27T04:42:26;98361.56;;;9.84;75.84
13767;BME280;47980;48.794;9.176;2023-04-27T04:44:58;98362.53;;;9.88;74.37
13767;BME280;47980;48.794;9.176;2023-04-27T04:47:30;98365.63;;;9.99;73.94
13767;BME280;47980;48.794;9.176;2023-04-27T04:50:03;98371.56;;;9.96;73.55
13767;BME280;47980;48.794;9.176;2023-04-27T04:52:36;98359.72;;;9.93;73.24
13767;BME280;47980;48.794;9.176;2023-04-27T04:55:09;98359.22;;;9.91;72.85
13767;BME280;47980;48.794;9.176;2023-04-27T04:57:45;98361.38;;;10.15;72.48
13767;BME280;47980;48.794;9.176;2023-04-27T05:00:17;98364.69;;;9.95;72.56
13767;BME280;47980;48.794;9.176;2023-04-27T05:02:48;98366.09;;;10.09;72.13
13767;BME280;47980;48.794;9.176;2023-04-27T05:05:20;98361.53;;;10.27;70.85
13767;BME280;47980;48.794;9.176;2023-04-27T05:07:51;98367.44;;;10.42;71.16
13767;BME280;47980;48.794;9.176;2023-04-27T05:10:23;98373.66;;;10.54;70.72
13767;BME280;47980;48.794;9.176;2023-04-27T05:12:56;98364.59;;;10.55;69.99
13767;BME280;47980;48.794;9.176;2023-04-27T05:15:28;98367.53;;;10.71;69.78
13767;BME280;47980;48.794;9.176;2023-04-27T05:17:59;98366.28;;;10.69;69.71
13767;BME280;47980;48.794;9.176;2023-04-27T05:20:33;98361.75;;;10.69;68.56
13767;BME280;47980;48.794;9.176;2023-04-27T05:23:05;98370.66;;;10.56;69.23
13767;BME280;47980;48.794;9.176;2023-04-27T05:25:36;98365.63;;;10.72;68.35
13767;BME280;47980;48.794;9.176;2023-04-27T05:28:12;98368.66;;;10.91;66.54
13767;BME280;47980;48.794;9.176;2023-04-27T05:30:44;98364.38;;;10.69;69.13
13767;BME280;47980;48.794;9.176;2023-04-27T05:33:15;98377.88;;;10.94;68.30
13767;BME280;47980;48.794;9.176;2023-04-27T05:35:47;98375.22;;;11.23;66.48
13767;BME280;47980;48.794;9.176;2023-04-27T05:38:19;98377.47;;;11.13;67.52
13767;BME280;47980;48.794;9.176;2023-04-27T05:40:53;98377.50;;;11.33;67.09
13767;BME280;47980;48.794;9.176;2023-04-27T05:43:26;98377.31;;;11.60;65.20
13767;BME280;47980;48.794;9.176;2023-04-27T05:45:58;98382.88;;;11.46;65.29
13767;BME280;47980;48.794;9.176;2023-04-27T05:48:29;98388.72;;;11.60;65.13
13767;BME280;47980;48.794;9.176;2023-04-27T05:51:04;98384.91;;;11.70;64.42
13767;BME280;47980;48.794;9.176;2023-04-27T05:53:36;98378.63;;;11.74;65.96
13767;BME280;47980;48.794;9.176;2023-04-27T05:56:08;98388.53;;;11.65;65.18
13767;BME280;47980;48.794;9.176;2023-04-27T05:58:42;98385.44;;;11.63;64.12
13767;BME280;47980;48.794;9.176;2023-04-27T06:01:13;98390.31;;;12.03;64.34
13767;BME280;47980;48.794;9.176;2023-04-27T06:03:50;98393.72;;;12.24;63.04
13767;BME280;47980;48.794;9.176;2023-04-27T06:06:22;98398.31;;;11.52;65.30
13767;BME280;47980;48.794;9.176;2023-04-27T06:08:54;98407.50;;;11.85;63.45
13767;BME280;47980;48.794;9.176;2023-04-27T06:11:25;98403.94;;;12.35;62.97
13767;BME280;47980;48.794;9.176;2023-04-27T06:14:03;98391.53;;;12.06;63.19
13767;BME280;47980;48.794;9.176;2023-04-27T06:16:34;98394.00;;;12.56;61.49
13767;BME280;47980;48.794;9.176;2023-04-27T06:19:06;98399.19;;;11.86;62.54
13767;BME280;47980;48.794;9.176;2023-04-27T06:21:37;98399.69;;;12.00;62.79
13767;BME280;47980;48.794;9.176;2023-04-27T06:24:17;98403.00;;;12.31;62.21
13767;BME280;47980;48.794;9.176;2023-04-27T06:26:49;98404.06;;;12.38;63.54
13767;BME280;47980;48.794;9.176;2023-04-27T06:29:22;98410.81;;;12.36;61.03
13767;BME280;47980;48.794;9.176;2023-04-27T06:32:01;98411.34;;;12.99;60.78
13767;BME280;47980;48.794;9.176;2023-04-27T06:34:35;98413.19;;;12.49;61.72
13767;BME280;47980;48.794;9.176;2023-04-27T06:37:07;98408.78;;;12.78;61.19
13767;BME280;47980;48.794;9.176;2023-04-27T06:39:39;98411.13;;;12.80;60.83
13767;BME280;47980;48.794;9.176;2023-04-27T06:42:12;98409.03;;;12.27;62.42
13767;BME280;47980;48.794;9.176;2023-04-27T06:44:45;98411.31;;;12.62;61.02
13767;BME280;47980;48.794;9.176;2023-04-27T06:47:17;98412.59;;;13.01;60.66
13767;BME280;47980;48.794;9.176;2023-04-27T06:49:48;98410.47;;;13.19;60.37
13767;BME280;47980;48.794;9.176;2023-04-27T06:52:30;98418.59;;;13.35;58.46
13767;BME280;47980;48.794;9.176;2023-04-27T06:55:02;98414.78;;;12.75;60.26
13767;BME280;47980;48.794;9.176;2023-04-27T06:57:34;98418.47;;;13.32;60.05
13767;BME280;47980;48.794;9.176;2023-04-27T07:00:15;98422.59;;;13.41;59.22
13767;BME280;47980;48.794;9.176;2023-04-27T07:02:47;98423.59;;;13.37;59.16
13767;BME280;47980;48.794;9.176;2023-04-27T07:05:18;98422.66;;;13.69;57.31
13767;BME280;47980;48.794;9.176;2023-04-27T07:07:57;98419.16;;;14.21;58.28
13767;BME280;47980;48.794;9.176;2023-04-27T07:10:29;98411.00;;;14.58;55.86
13767;BME280;47980;48.794;9.176;2023-04-27T07:13:01;98423.53;;;14.14;56.75
13767;BME280;47980;48.794;9.176;2023-04-27T07:15:38;98421.16;;;14.53;55.42
13767;BME280;47980;48.794;9.176;2023-04-27T07:18:10;98418.06;;;14.66;54.90
13767;BME280;47980;48.794;9.176;2023-04-27T07:20:42;98412.91;;;14.74;53.55
13767;BME280;47980;48.794;9.176;2023-04-27T07:23:14;98416.69;;;14.88;55.00
13767;BME280;47980;48.794;9.176;2023-04-27T07:25:46;98413.75;;;15.25;53.45
13767;BME280;47980;48.794;9.176;2023-04-27T07:28:23;98418.44;;;14.97;55.04
13767;BME280;47980;48.794;9.176;2023-04-27T07:30:57;98416.97;;;15.15;53.55
13767;BME280;47980;48.794;9.176;2023-04-27T07:33:28;98414.91;;;14.92;52.71
13767;BME280;47980;48.794;9.176;2023-04-27T07:36:00;98413.69;;;15.06;52.45
13767;BME280;47980;48.794;9.176;2023-04-27T07:38:34;98408.19;;;14.83;53.66
13767;BME280;47980;48.794;9.176;2023-04-27T07:41:07;98407.06;;;15.51;51.11
13767;BME280;47980;48.794;9.176;2023-04-27T07:43:39;98412.94;;;15.76;50.82
13767;BME280;47980;48.794;9.176;2023-04-27T07:46:13;98410.75;;;15.62;51.43
13767;BME280;47980;48.794;9.176;2023-04-27T07:48:45;98398.97;;;16.02;51.49
13767;BME280;47980;48.794;9.176;2023-04-27T07:51:19;98408.63;;;15.87;50.92
13767;BME280;47980;48.794;9.176;2023-04-27T07:53:51;98411.56;;;15.82;50.12
13767;BME280;47980;48.794;9.176;2023-04-27T07:56:23;98407.88;;;16.29;50.04
13767;BME280;47980;48.794;9.176;2023-04-27T07:58:55;98403.59;;;16.67;48.39
13767;BME280;47980;48.794;9.176;2023-04-27T08:01:28;98396.72;;;15.84;50.08
13767;BME280;47980;48.794;9.176;2023-04-27T08:04:00;98413.47;;;16.20;49.14
13767;BME280;47980;48.794;9.176;2023-04-27T08:06:32;98408.59;;;16.26;48.71
13767;BME280;47980;48.794;9.176;2023-04-27T08:09:06;98413.22;;;16.29;49.36
13767;BME280;47980;48.794;9.176;2023-04-27T08:11:46;98409.88;;;15.93;49.34
13767;BME280;47980;48.794;9.176;2023-04-27T08:14:18;98403.75;;;15.73;50.36
13767;BME280;47980;48.794;9.176;2023-04-27T08:16:57;98404.88;;;15.92;49.99
13767;BME280;47980;48.794;9.176;2023-04-27T08:19:31;98399.09;;;15.89;49.24
13767;BME280;47980;48.794;9.176;2023-04-27T08:22:09;98400.56;;;15.32;50.13
13767;BME280;47980;48.794;9.176;2023-04-27T08:24:41;98392.13;;;16.04;49.57
13767;BME280;47980;48.794;9.176;2023-04-27T08:27:16;98390.41;;;16.58;47.62
13767;BME280;47980;48.794;9.176;2023-04-27T08:29:50;98385.88;;;16.39;49.74
13767;BME280;47980;48.794;9.176;2023-04-27T08:32:25;98391.34;;;16.04;49.25
13767;BME280;47980;48.794;9.176;2023-04-27T08:34:57;98389.56;;;16.11;49.23
13767;BME280;47980;48.794;9.176;2023-04-27T08:37:29;98386.25;;;16.18;48.38
13767;BME280;47980;48.794;9.176;2023-04-27T08:40:03;98378.25;;;16.18;49.36
13767;BME280;47980;48.794;9.176;2023-04-27T08:42:36;98373.81;;;16.49;47.52
13767;BME280;47980;48.794;9.176;2023-04-27T08:45:08;98375.84;;;15.94;49.25
13767;BME280;47980;48.794;9.176;2023-04-27T08:47:42;98369.25;;;15.87;49.12
13767;BME280;47980;48.794;9.176;2023-04-27T08:50:16;98378.59;;;16.17;48.45
13767;BME280;47980;48.794;9.176;2023-04-27T08:52:50;98378.59;;;15.97;47.23
13767;BME280;47980;48.794;9.176;2023-04-27T08:55:22;98370.97;;;16.61;45.30
13767;BME280;47980;48.794;9.176;2023-04-27T08:57:56;98369.06;;;16.84;45.50
13767;BME280;47980;48.794;9.176;2023-04-27T09:00:37;98370.13;;;16.80;46.06
13767;BME280;47980;48.794;9.176;2023-04-27T09:03:22;98373.09;;;16.52;46.54
13767;BME280;47980;48.794;9.176;2023-04-27T09:05:56;98364.53;;;17.42;45.28
13767;BME280;47980;48.794;9.176;2023-04-27T09:08:40;98361.34;;;17.06;44.91
13767;BME280;47980;48.794;9.176;2023-04-27T09:11:15;98374.59;;;16.95;46.21
13767;BME280;47980;48.794;9.176;2023-04-27T09:13:47;98368.66;;;16.82;47.50
13767;BME280;47980;48.794;9.176;2023-04-27T09:16:21;98373.66;;;16.84;48.80
13767;BME280;47980;48.794;9.176;2023-04-27T09:19:00;98378.06;;;16.96;45.47
13767;BME280;47980;48.794;9.176;2023-04-27T09:21:31;98382.94;;;16.67;45.30
13767;BME280;47980;48.794;9.176;2023-04-27T09:24:09;98383.72;;;17.17;45.46
13767;BME280;47980;48.794;9.176;2023-04-27T09:26:48;98380.56;;;17.38;44.83
13767;BME280;47980;48.794;9.176;2023-04-27T09:29:33;98377.16;;;17.71;43.98
13767;BME280;47980;48.794;9.176;2023-04-27T09:32:16;98373.47;;;16.96;44.72
13767;BME280;47980;48.794;9.176;2023-04-27T09:34:53;98374.72;;;17.59;45.40
13767;BME280;47980;48.794;9.176;2023-04-27T09:37:25;98377.56;;;16.90;44.99
13767;BME280;47980;48.794;9.176;2023-04-27T09:39:57;98374.81;;;16.41;44.55
13767;BME280;47980;48.794;9.176;2023-04-27T09:42:30;98374.69;;;17.02;45.69
13767;BME280;47980;48.794;9.176;2023-04-27T09:45:03;98373.63;;;17.33;46.24
13767;BME280;47980;48.794;9.176;2023-04-27T09:47:37;98372.47;;;17.35;44.40
13767;BME280;47980;48.794;9.176;2023-04-27T09:50:13;98372.59;;;18.02;43.25
13767;BME280;47980;48.794;9.176;2023-04-27T09:52:45;98363.22;;;18.26;43.31
13767;BME280;47980;48.794;9.176;2023-04-27T09:55:23;98363.06;;;18.49;41.08
13767;BME280;47980;48.794;9.176;2023-04-27T09:58:05;98362.09;;;18.68;41.09
13767;BME280;47980;48.794;9.176;2023-04-27T10:00:50;98357.97;;;18.78;41.38
13767;BME280;47980;48.794;9.176;2023-04-27T10:03:29;98365.50;;;18.20;42.71
13767;BME280;47980;48.794;9.176;2023-04-27T10:09:11;98359.50;;;18.00;44.62
13767;BME280;47980;48.794;9.176;2023-04-27T10:11:44;98365.19;;;18.29;43.26
13767;BME280;47980;48.794;9.176;2023-04-27T10:14:19;98362.00;;;18.57;43.87
13767;BME280;47980;48.794;9.176;2023-04-27T10:16:52;98372.25;;;18.48;43.30
13767;BME280;47980;48.794;9.176;2023-04-27T10:19:24;98369.66;;;18.18;43.14
13767;BME280;47980;48.794;9.176;2023-04-27T10:21:57;98362.38;;;18.56;44.57
13767;BME280;47980;48.794;9.176;2023-04-27T10:24:40;98369.78;;;17.61;42.15
13767;BME280;47980;48.794;9.176;2023-04-27T10:27:15;98366.75;;;17.36;42.89
13767;BME280;47980;48.794;9.176;2023-04-27T10:29:53;98369.97;;;17.75;44.63
13767;BME280;47980;48.794;9.176;2023-04-27T10:32:25;98373.53;;;18.20;42.91
13767;BME280;47980;48.794;9.176;2023-04-27T10:35:02;98365.50;;;17.87;43.71
13767;BME280;47980;48.794;9.176;2023-04-27T10:37:38;98357.19;;;18.77;43.07
13767;BME280;47980;48.794;9.176;2023-04-27T10:40:13;98362.59;;;18.40;40.95
13767;BME280;47980;48.794;9.176;2023-04-27T10:42:46;98348.25;;;18.69;42.51
13767;BME280;47980;48.794;9.176;2023-04-27T10:45:27;98349.00;;;18.66;42.04
13767;BME280;47980;48.794;9.176;2023-04-27T10:48:01;98350.88;;;18.18;43.04
13767;BME280;47980;48.794;9.176;2023-04-27T10:50:33;98347.25;;;18.40;42.31
13767;BME280;47980;48.794;9.176;2023-04-27T10:53:05;98335.28;;;17.93;43.03
13767;BME280;47980;48.794;9.176;2023-04-27T10:55:40;98342.34;;;18.49;43.01
13767;BME280;47980;48.794;9.176;2023-04-27T10:58:12;98348.56;;;17.83;42.23
13767;BME280;47980;48.794;9.176;2023-04-27T11:00:43;98340.56;;;18.64;43.37
13767;BME280;47980;48.794;9.176;2023-04-27T11:03:17;98346.00;;;18.71;42.56
13767;BME280;47980;48.794;9.176;2023-04-27T11:05:59;98343.47;;;18.93;42.20
13767;BME280;47980;48.794;9.176;2023-04-27T11:08:31;98345.47;;;18.99;41.45
13767;BME280;47980;48.794;9.176;2023-04-27T11:11:05;98350.81;;;18.96;41.14
13767;BME280;47980;48.794;9.176;2023-04-27T11:13:41;98335.31;;;18.34;41.20
13767;BME280;47980;48.794;9.176;2023-04-27T11:16:15;98339.97;;;18.41;42.22
13767;BME280;47980;48.794;9.176;2023-04-27T11:19:11;98342.03;;;18.17;43.84
13767;BME280;47980;48.794;9.176;2023-04-27T11:21:44;98343.94;;;18.13;42.59
13767;BME280;47980;48.794;9.176;2023-04-27T11:24:15;98333.19;;;17.76;43.04
13767;BME280;47980;48.794;9.176;2023-04-27T11:26:51;98337.88;;;17.56;43.78
13767;BME280;47980;48.794;9.176;2023-04-27T11:29:23;98329.81;;;17.86;43.85
13767;BME280;47980;48.794;9.176;2023-04-27T11:31:55;98328.09;;;17.71;42.34
13767;BME280;47980;48.794;9.176;2023-04-27T11:34:26;98328.41;;;17.96;43.23
13767;BME280;47980;48.794;9.176;2023-04-27T11:37:04;98318.00;;;18.32;44.22
13767;BME280;47980;48.794;9.176;2023-04-27T11:39:37;98319.34;;;18.52;42.13
13767;BME280;47980;48.794;9.176;2023-04-27T11:42:16;98333.69;;;18.70;42.37
13767;BME280;47980;48.794;9.176;2023-04-27T11:44:51;98327.50;;;18.66;41.98
13767;BME280;47980;48.794;9.176;2023-04-27T11:47:25;98338.16;;;18.52;41.85
13767;BME280;47980;48.794;9.176;2023-04-27T11:49:59;98344.88;;;18.76;41.82
13767;BME280;47980;48.794;9.176;2023-04-27T11:52:32;98336.41;;;18.29;43.25
13767;BME280;47980;48.794;9.176;2023-04-27T11:55:04;98336.63;;;18.55;41.00
13767;BME280;47980;48.794;9.176;2023-04-27T11:57:37;98319.97;;;18.35;42.21
13767;BME280;47980;48.794;9.176;2023-04-27T12:00:09;98326.63;;;18.96;40.36
13767;BME280;47980;48.794;9.176;2023-04-27T12:02:43;98325.41;;;18.90;40.41
13767;BME280;47980;48.794;9.176;2023-04-27T12:05:15;98323.16;;;18.99;41.82
13767;BME280;47980;48.794;9.176;2023-04-27T12:07:47;98309.66;;;18.44;41.98
13767;BME280;47980;48.794;9.176;2023-04-27T12:10:18;98311.00;;;18.68;41.74
13767;BME280;47980;48.794;9.176;2023-04-27T12:12:52;98309.63;;;18.40;41.63
13767;BME280;47980;48.794;9.176;2023-04-27T12:15:23;98314.91;;;18.29;42.98
13767;BME280;47980;48.794;9.176;2023-04-27T12:17:55;98307.50;;;18.60;41.86
13767;BME280;47980;48.794;9.176;2023-04-27T12:20:26;98307.09;;;19.13;40.04
13767;BME280;47980;48.794;9.176;2023-04-27T12:22:58;98304.88;;;19.26;40.40
13767;BME280;47980;48.794;9.176;2023-04-27T12:25:30;98312.88;;;18.60;42.43
13767;BME280;47980;48.794;9.176;2023-04-27T12:28:03;98307.03;;;18.07;42.26
13767;BME280;47980;48.794;9.176;2023-04-27T12:30:35;98303.03;;;18.75;42.05
13767;BME280;47980;48.794;9.176;2023-04-27T12:33:07;98300.88;;;18.47;44.35
13767;BME280;47980;48.794;9.176;2023-04-27T12:35:40;98306.00;;;18.63;41.79
13767;BME280;47980;48.794;9.176;2023-04-27T12:38:11;98307.06;;;19.06;41.26
13767;BME280;47980;48.794;9.176;2023-04-27T12:40:43;98303.69;;;19.23;41.08
13767;BME280;47980;48.794;9.176;2023-04-27T12:43:16;98301.56;;;19.58;39.86
13767;BME280;47980;48.794;9.176;2023-04-27T12:45:47;98305.09;;;19.73;41.24
13767;BME280;47980;48.794;9.176;2023-04-27T12:48:19;98295.53;;;20.11;38.41
13767;BME280;47980;48.794;9.176;2023-04-27T12:50:52;98296.72;;;20.38;37.83
13767;BME280;47980;48.794;9.176;2023-04-27T12:53:23;98290.84;;;19.65;39.76
13767;BME280;47980;48.794;9.176;2023-04-27T12:55:55;98285.72;;;19.42;39.11
13767;BME280;47980;48.794;9.176;2023-04-27T12:58:27;98297.88;;;20.05;38.96
13767;BME280;47980;48.794;9.176;2023-04-27T13:00:59;98285.69;;;19.35;39.93
13767;BME280;47980;48.794;9.176;2023-04-27T13:03:31;98280.31;;;19.38;39.66
13767;BME280;47980;48.794;9.176;2023-04-27T13:06:02;98281.94;;;19.57;40.92
13767;BME280;47980;48.794;9.176;2023-04-27T13:08:36;98283.25;;;20.49;38.05
13767;BME280;47980;48.794;9.176;2023-04-27T13:11:08;98287.47;;;20.07;39.26
13767;BME280;47980;48.794;9.176;2023-04-27T13:13:41;98283.94;;;19.78;40.84
13767;BME280;47980;48.794;9.176;2023-04-27T13:16:12;98281.72;;;20.12;37.99
13767;BME280;47980;48.794;9.176;2023-04-27T13:18:45;98278.63;;;20.10;40.52
13767;BME280;47980;48.794;9.176;2023-04-27T13:21:19;98272.09;;;20.26;40.15
13767;BME280;47980;48.794;9.176;2023-04-27T13:23:50;98272.84;;;20.48;38.60
13767;BME280;47980;48.794;9.176;2023-04-27T13:26:24;98282.81;;;20.01;38.96
13767;BME280;47980;48.794;9.176;2023-04-27T13:28:56;98284.13;;;19.30;40.62
13767;BME280;47980;48.794;9.176;2023-04-27T13:31:28;98277.22;;;19.29;40.85
13767;BME280;47980;48.794;9.176;2023-04-27T13:34:01;98279.22;;;18.77;41.35
13767;BME280;47980;48.794;9.176;2023-04-27T13:36:33;98276.31;;;19.00;41.58